Airfield :
LOGIN :

Register | Disclaimer

   EN    FR    IT 

 










Legend :    VFR   Marginal VFR   IFR   Intensive IFR   Very Intensive IFR
Visi :
Ceiling :
>= 8 km
>= 3000ft
5 to 8 km
1000 to 3000 ft
1500m to 5 km
500 to 1000 ft
800 to 1500m
200 to 500 ft
< 800m
< 200 ft
Symbols :   Thunderstorms  Fog  Heavy snow  Heavy precipitations  Wind > 20 kt
SIGMETs :     Misc.  Thunderstorms  Icing  Turbulence  Mountain Waves  Volcanic Ashes






- Airport Elevation : 90 ft
- IATA code : NTE


LFRS - Nantes

CURRENT METAR :
  • 262130Z AUTO 20013KT 7000 -RA OVC009/// ///CB 10/10 Q1014 TEMPO 2000 RA OVC003 BECMG 22015G25KT

EXPIRED METARs :
  • 262100Z AUTO 21014KT 8000 -RA OVC011/// ///TCU 10/10 Q1014 TEMPO 2000 RA OVC003 BECMG 22015G25KT
  • 262030Z AUTO 21011KT 9999 -RA FEW012/// OVC020/// ///TCU 11/09 Q1014 TEMPO 2000 RA OVC003 BECMG 22015G25KT
  • 262000Z AUTO 20014KT 9999 -RA BKN015 OVC024 11/09 Q1015 TEMPO 2000 RA OVC003 BECMG 22015G25KT
  • 261930Z AUTO 20014KT 9999 BKN017/// BKN028/// BKN041/// ///TCU 11/09 Q1015 TEMPO 2000 RA OVC003 BECMG 22015G25KT
  • 261900Z AUTO 20013KT 9999 SCT020/// BKN030/// BKN036/// ///TCU 11/09 Q1015 TEMPO 2000 RA OVC003 BECMG 22015G25KT

TAF AMD TAF LFRS
Valid from the 26 at 20:00 until the 28 at 00:00 UTC


262007Z 2620/2724 21012KT 9999 BKN020
BECMG 2620/2621 22015G25KT 4000 -RA OVC012
TEMPO 2620/2716 2000 RA OVC003
BECMG 2716/2718 9999 NSW BKN020
TEMPO 2718/2724 25020G30KT 4000 SHRA BKN020TCU
ATIS : +33 2 40 05 12 74



MET'MAP, your aeronautical weather chart ! - Copyright ORBIFLY December 2007 - Disclaimer

ORBIFLY MET'MAP TEAM :

Programming & Development : Alexandra Zaïnal
Concept & original design : Baudouin d'Aumeries
Assistance for programming : Marc-Olivier Méhu
Technical & hardware support : Manuel Goepfert

Contact : metmap@orbifly.com




SOURCES & CREDITS :

   NOAA